createdAt,value
2017-07-22T14:31:51.726Z,97443.66
2017-07-22T14:34:20.750Z,97451.52
2017-07-22T14:36:50.295Z,97445.95
2017-07-22T14:39:20.435Z,97449.08
2017-07-22T14:41:49.900Z,97442.56
2017-07-22T14:44:19.419Z,97436.39
2017-07-22T14:46:48.814Z,97439.64
2017-07-22T14:49:18.290Z,97433.37
2017-07-22T14:51:47.583Z,97436.81
2017-07-22T14:54:16.702Z,97446.73
2017-07-22T14:56:46.236Z,97443.97
2017-07-22T14:59:15.472Z,97429.27
2017-07-22T15:01:45.008Z,97431.27
2017-07-22T15:04:14.159Z,97424.71
2017-07-22T15:06:43.826Z,97430.13
2017-07-22T15:09:13.297Z,97423.64
2017-07-22T15:11:42.670Z,97428.56
2017-07-22T15:14:12.811Z,97435.20
2017-07-22T15:16:41.914Z,97429.77
2017-07-22T15:19:11.065Z,97435.98
2017-07-22T15:21:40.019Z,97437.08
2017-07-22T15:24:09.024Z,97434.87
2017-07-22T15:26:38.511Z,97445.22
2017-07-22T15:29:07.843Z,97454.34
2017-07-22T15:31:37.058Z,97457.98
2017-07-22T15:34:07.124Z,97461.82
2017-07-22T15:36:36.258Z,97463.87
2017-07-22T15:39:05.850Z,97472.20
2017-07-22T15:41:35.162Z,97471.72
2017-07-22T15:44:04.928Z,97466.55
2017-07-22T15:46:34.927Z,97464.59
2017-07-22T15:49:03.284Z,97467.05
2017-07-22T15:51:31.416Z,97459.00
2017-07-22T15:54:00.748Z,97461.80
2017-07-22T15:56:30.024Z,97458.02
2017-07-22T15:58:59.174Z,97450.93
2017-07-22T16:01:28.706Z,97448.31
2017-07-22T16:03:58.029Z,97444.67
2017-07-22T16:06:27.247Z,97444.41
2017-07-22T16:08:56.368Z,97443.80
2017-07-22T16:11:25.570Z,97443.02
2017-07-22T16:13:54.678Z,97444.28
2017-07-22T16:16:23.723Z,97441.20
2017-07-22T16:18:54.013Z,97432.04
2017-07-22T16:21:24.044Z,97430.47
2017-07-22T16:23:53.742Z,97432.44
2017-07-22T16:26:23.969Z,97424.20
2017-07-22T16:28:53.685Z,97436.62
2017-07-22T16:31:24.596Z,97440.59
2017-07-22T16:33:54.370Z,97443.80
2017-07-22T16:36:23.468Z,97441.84
2017-07-22T16:38:52.636Z,97441.41
2017-07-22T16:41:22.135Z,97440.64
2017-07-22T16:43:50.954Z,97433.92
2017-07-22T16:46:20.400Z,97428.03
2017-07-22T16:48:49.997Z,97424.08
2017-07-22T16:51:19.260Z,97430.81
2017-07-22T16:53:48.783Z,97431.77
2017-07-22T16:56:17.889Z,97422.50
2017-07-22T16:58:47.641Z,97429.78
2017-07-22T17:01:16.941Z,97426.44
2017-07-22T17:03:45.652Z,97417.36
2017-07-22T17:06:14.887Z,97420.48
2017-07-22T17:08:44.630Z,97419.74
2017-07-22T17:11:14.034Z,97419.28
2017-07-22T17:13:43.502Z,97427.61
2017-07-22T17:16:13.024Z,97420.27
2017-07-22T17:18:43.027Z,97417.52
2017-07-22T17:21:12.649Z,97418.28
2017-07-22T17:23:41.751Z,97423.03
2017-07-22T17:26:10.747Z,97423.87
2017-07-22T17:28:39.931Z,97422.53
2017-07-22T17:31:09.514Z,97417.70
2017-07-22T17:33:38.849Z,97415.13
2017-07-22T17:36:08.255Z,97413.96
2017-07-22T17:38:37.677Z,97408.02
2017-07-22T17:41:06.992Z,97408.45
2017-07-22T17:43:36.036Z,97402.78
2017-07-22T17:46:05.108Z,97399.48
2017-07-22T17:48:34.398Z,97390.74
2017-07-22T17:51:04.485Z,97387.20
2017-07-22T17:53:33.689Z,97388.57
2017-07-22T17:56:02.690Z,97392.52
2017-07-22T17:58:33.015Z,97390.36
2017-07-22T18:01:03.092Z,97398.22
2017-07-22T18:03:31.611Z,97398.01
2017-07-22T18:06:01.201Z,97402.09
2017-07-22T18:08:30.189Z,97391.14
2017-07-22T18:10:59.896Z,97392.76
2017-07-22T18:13:29.280Z,97394.42
2017-07-22T18:15:58.560Z,97407.26
2017-07-22T18:18:28.101Z,97412.97
2017-07-22T18:20:57.348Z,97409.87
2017-07-22T18:23:26.398Z,97414.01
2017-07-22T18:25:55.731Z,97420.11
2017-07-22T18:28:25.046Z,97418.19
2017-07-22T18:30:54.290Z,97419.20
2017-07-22T18:33:24.838Z,97413.05
2017-07-22T18:35:53.928Z,97419.17
2017-07-22T18:38:23.175Z,97418.17
2017-07-22T18:40:53.340Z,97413.09
2017-07-22T18:43:23.231Z,97417.86
2017-07-22T18:45:53.020Z,97413.75
2017-07-22T18:48:22.392Z,97413.92
2017-07-22T18:50:53.145Z,97417.66
2017-07-22T18:53:22.031Z,97413.33
2017-07-22T18:55:50.783Z,97420.38
2017-07-22T18:58:20.760Z,97422.55
2017-07-22T19:00:50.127Z,97423.16
2017-07-22T19:03:19.513Z,97426.51
2017-07-22T19:05:49.076Z,97424.31
2017-07-22T19:08:18.323Z,97429.04
2017-07-22T19:10:47.832Z,97430.61
2017-07-22T19:13:17.029Z,97435.53
2017-07-22T19:15:46.106Z,97438.48
2017-07-22T19:18:15.436Z,97434.74
2017-07-22T19:20:44.582Z,97435.95
2017-07-22T19:23:14.127Z,97436.74
2017-07-22T19:25:43.259Z,97430.64
2017-07-22T19:28:12.709Z,97439.89
2017-07-22T19:30:41.887Z,97436.96
2017-07-22T19:33:11.443Z,97433.41
2017-07-22T19:35:40.794Z,97439.90
2017-07-22T19:38:10.562Z,97436.53
2017-07-22T19:40:39.598Z,97436.52
2017-07-22T19:43:09.318Z,97431.55
2017-07-22T19:45:38.447Z,97428.80
2017-07-22T19:48:08.172Z,97429.34
2017-07-22T19:50:37.703Z,97439.57
2017-07-22T19:53:07.205Z,97435.28
2017-07-22T19:55:36.591Z,97439.27
2017-07-22T19:58:06.163Z,97438.33
2017-07-22T20:00:33.830Z,97440.87
2017-07-22T20:03:01.255Z,97438.14
2017-07-22T20:05:28.656Z,97438.73
2017-07-22T20:07:56.096Z,97439.11
2017-07-22T20:10:23.561Z,97442.91
2017-07-22T20:12:51.007Z,97439.22
2017-07-22T20:15:18.454Z,97427.64
2017-07-22T20:17:46.002Z,97430.56
2017-07-22T20:20:13.441Z,97430.77
2017-07-22T20:22:40.878Z,97431.03
2017-07-22T20:25:08.292Z,97419.81
2017-07-22T20:27:35.732Z,97426.75
2017-07-22T20:30:03.157Z,97433.61
2017-07-22T20:32:30.625Z,97434.02
2017-07-22T20:34:58.046Z,97440.74
2017-07-22T20:37:25.464Z,97444.70
2017-07-22T20:39:52.935Z,97453.69
2017-07-22T20:42:20.447Z,97450.35
2017-07-22T20:44:47.844Z,97453.09
2017-07-22T20:47:15.318Z,97462.55
2017-07-22T20:49:42.764Z,97462.16
2017-07-22T20:52:10.312Z,97470.00
2017-07-22T20:54:37.818Z,97468.00
2017-07-22T20:57:05.236Z,97464.95
2017-07-22T20:59:32.957Z,97473.55
2017-07-22T21:02:00.379Z,97473.31
2017-07-22T21:04:27.786Z,97484.26
2017-07-22T21:06:55.195Z,97488.70
2017-07-22T21:09:22.638Z,97488.45
2017-07-22T21:11:50.076Z,97492.17
2017-07-22T21:14:17.502Z,97495.13
2017-07-22T21:16:44.931Z,97499.30
2017-07-22T21:19:12.352Z,97503.38
2017-07-22T21:21:39.844Z,97499.78
2017-07-22T21:24:07.269Z,97496.39
2017-07-22T21:26:34.872Z,97493.63
2017-07-22T21:29:02.332Z,97497.58
2017-07-22T21:31:30.158Z,97495.41
2017-07-22T21:33:57.577Z,97498.53
2017-07-22T21:36:25.024Z,97501.16
2017-07-22T21:38:52.522Z,97507.47
2017-07-22T21:41:19.930Z,97506.88
2017-07-22T21:43:47.467Z,97505.52
2017-07-22T21:46:14.919Z,97510.22
2017-07-22T21:48:42.334Z,97499.68
2017-07-22T21:51:09.751Z,97512.84
2017-07-22T21:53:37.168Z,97508.87
2017-07-22T21:56:04.643Z,97512.61
2017-07-22T21:58:32.074Z,97517.33
2017-07-22T22:00:59.476Z,97525.43
2017-07-22T22:03:26.935Z,97518.80
2017-07-22T22:05:54.344Z,97517.66
2017-07-22T22:08:21.761Z,97521.88
2017-07-22T22:10:49.273Z,97522.56
2017-07-22T22:13:16.691Z,97531.64
2017-07-22T22:15:44.107Z,97522.20
2017-07-22T22:18:11.660Z,97523.30
2017-07-22T22:20:39.079Z,97520.95
2017-07-22T22:23:06.505Z,97515.58
2017-07-22T22:25:33.939Z,97518.16
2017-07-22T22:28:01.895Z,97512.71
2017-07-22T22:30:29.296Z,97514.73
2017-07-22T22:32:56.712Z,97514.72
2017-07-22T22:35:24.156Z,97507.57
2017-07-22T22:37:51.606Z,97512.97
2017-07-22T22:40:19.036Z,97518.48
2017-07-22T22:42:46.468Z,97518.27
2017-07-22T22:45:13.967Z,97523.98
2017-07-22T22:47:41.424Z,97521.82
2017-07-22T22:50:09.458Z,97528.53
2017-07-22T22:52:36.859Z,97527.98
2017-07-22T22:55:04.311Z,97528.49
2017-07-22T22:57:31.738Z,97521.41
2017-07-22T22:59:59.182Z,97517.33
2017-07-22T23:02:26.586Z,97530.03
2017-07-22T23:04:54.003Z,97528.88
2017-07-22T23:07:21.431Z,97521.77
2017-07-22T23:09:48.856Z,97521.50
2017-07-22T23:12:16.299Z,97529.72
2017-07-22T23:14:43.770Z,97535.02
2017-07-22T23:17:11.239Z,97532.26
2017-07-22T23:19:38.659Z,97547.40
2017-07-22T23:22:06.244Z,97544.69
2017-07-22T23:24:33.688Z,97550.95
2017-07-22T23:27:01.111Z,97552.88
2017-07-22T23:29:28.554Z,97544.99
2017-07-22T23:31:55.963Z,97550.25
2017-07-22T23:34:23.468Z,97559.76
2017-07-22T23:36:50.902Z,97565.08
2017-07-22T23:39:18.343Z,97570.91
2017-07-22T23:41:45.778Z,97561.16
2017-07-22T23:44:13.192Z,97571.13
2017-07-22T23:46:40.617Z,97569.41
2017-07-22T23:49:08.029Z,97565.62
2017-07-22T23:51:35.438Z,97558.61
2017-07-22T23:54:02.882Z,97560.30
2017-07-22T23:56:30.284Z,97564.44
2017-07-22T23:58:57.754Z,97566.62
